createdAt,value
2023-03-30T00:00:56.084Z,96.80
2023-03-30T00:03:23.545Z,97.50
2023-03-30T00:05:51.969Z,97.40
2023-03-30T00:08:19.422Z,97.50
2023-03-30T00:10:47.976Z,97.80
2023-03-30T00:13:15.268Z,98.30
2023-03-30T00:15:42.382Z,97.60
2023-03-30T00:18:09.922Z,97.20
2023-03-30T00:20:37.897Z,96.90
2023-03-30T00:23:05.086Z,96.10
2023-03-30T00:25:32.293Z,96.00
2023-03-30T00:27:59.418Z,95.90
2023-03-30T00:30:26.690Z,95.90
2023-03-30T00:32:54.036Z,95.80
2023-03-30T00:35:21.330Z,95.70
2023-03-30T00:37:49.906Z,95.50
2023-03-30T00:40:20.220Z,95.90
2023-03-30T00:42:48.448Z,96.30
2023-03-30T00:45:20.764Z,96.80
2023-03-30T00:48:01.934Z,96.70
2023-03-30T00:50:36.999Z,97.30
2023-03-30T00:53:10.072Z,97.30
2023-03-30T00:55:39.822Z,96.80
2023-03-30T00:58:10.172Z,96.40
2023-03-30T01:00:39.626Z,95.80
2023-03-30T01:03:15.192Z,95.30
2023-03-30T01:05:44.848Z,95.70
2023-03-30T01:08:14.163Z,95.50
2023-03-30T01:10:41.433Z,95.30
2023-03-30T01:13:08.704Z,95.70
2023-03-30T01:15:42.944Z,95.50
2023-03-30T01:18:19.797Z,95.30
2023-03-30T01:21:10.822Z,95.30
2023-03-30T01:24:16.010Z,95.10
2023-03-30T01:27:05.228Z,95.30
2023-03-30T01:29:57.178Z,95.40
2023-03-30T01:32:46.488Z,95.30
2023-03-30T01:35:38.316Z,95.60
2023-03-30T01:38:17.874Z,95.30
2023-03-30T01:41:07.957Z,94.70
2023-03-30T01:44:24.844Z,94.30
2023-03-30T01:46:59.832Z,94.10
2023-03-30T01:49:53.143Z,94.20
2023-03-30T01:52:24.672Z,94.30
2023-03-30T01:55:02.141Z,94.30
2023-03-30T01:57:41.366Z,93.60
2023-03-30T02:00:14.944Z,93.40
2023-03-30T02:02:48.880Z,93.40
2023-03-30T02:05:19.851Z,93.10
2023-03-30T02:07:53.501Z,93.00
2023-03-30T02:10:25.062Z,93.10
2023-03-30T02:12:54.683Z,92.70
2023-03-30T02:15:23.819Z,92.60
2023-03-30T02:17:51.520Z,93.00
2023-03-30T02:20:19.112Z,92.60
2023-03-30T02:22:46.717Z,92.80
2023-03-30T02:25:14.612Z,92.90
2023-03-30T02:27:42.853Z,92.80
2023-03-30T02:30:10.655Z,92.50
2023-03-30T02:32:57.360Z,92.70
2023-03-30T02:35:38.791Z,92.70
2023-03-30T02:38:30.680Z,92.30
2023-03-30T02:41:34.655Z,92.60
2023-03-30T02:44:37.023Z,92.60
2023-03-30T02:47:07.000Z,92.60
2023-03-30T02:49:59.073Z,92.80
2023-03-30T02:53:07.691Z,92.70
2023-03-30T02:55:54.392Z,92.70
2023-03-30T02:58:38.542Z,92.90
2023-03-30T03:01:14.993Z,92.90
2023-03-30T03:03:55.227Z,93.40
2023-03-30T03:06:23.876Z,93.50
2023-03-30T03:08:55.785Z,93.50
2023-03-30T03:11:27.237Z,93.60
2023-03-30T03:13:55.699Z,93.30
2023-03-30T03:16:24.031Z,93.30
2023-03-30T03:19:11.935Z,93.60
2023-03-30T03:21:40.145Z,93.90
2023-03-30T03:24:08.240Z,93.90
2023-03-30T03:26:55.703Z,94.00
2023-03-30T03:29:23.836Z,94.20
2023-03-30T03:31:51.107Z,94.20
2023-03-30T03:34:20.896Z,94.40
2023-03-30T03:36:58.900Z,93.90
2023-03-30T03:39:28.687Z,94.20
2023-03-30T03:42:05.333Z,94.70
2023-03-30T03:44:34.176Z,94.70
2023-03-30T03:47:01.304Z,94.40
2023-03-30T03:49:28.462Z,94.00
2023-03-30T03:51:55.523Z,93.50
2023-03-30T03:54:22.804Z,94.20
2023-03-30T03:56:52.148Z,93.70
2023-03-30T03:59:19.271Z,94.30
2023-03-30T04:01:48.174Z,94.80
2023-03-30T04:04:15.358Z,95.70
2023-03-30T04:06:42.705Z,95.70
2023-03-30T04:09:09.803Z,95.10
2023-03-30T04:12:00.307Z,94.70
2023-03-30T04:14:58.426Z,94.40
2023-03-30T04:17:47.319Z,94.30
2023-03-30T04:20:32.998Z,94.60
2023-03-30T04:23:23.453Z,94.70
2023-03-30T04:26:09.431Z,94.90
2023-03-30T04:28:47.093Z,94.80
2023-03-30T04:31:47.142Z,94.90
2023-03-30T04:34:21.900Z,94.50
2023-03-30T04:37:04.991Z,94.20
2023-03-30T04:40:09.414Z,94.20
2023-03-30T04:43:04.665Z,94.40
2023-03-30T04:46:03.945Z,94.40
2023-03-30T04:48:34.032Z,94.20
2023-03-30T04:51:10.477Z,94.00
2023-03-30T04:54:03.721Z,93.90
2023-03-30T04:56:59.960Z,93.60
2023-03-30T04:59:45.554Z,93.90
2023-03-30T05:02:42.355Z,93.50
2023-03-30T05:05:29.837Z,93.50
2023-03-30T05:08:19.982Z,93.70
2023-03-30T05:11:07.722Z,93.40
2023-03-30T05:13:52.285Z,93.20
2023-03-30T05:16:38.392Z,93.40
2023-03-30T05:19:05.674Z,93.40
2023-03-30T05:21:47.775Z,93.60
2023-03-30T05:24:26.623Z,93.60
2023-03-30T05:27:12.988Z,93.30
2023-03-30T05:30:09.797Z,93.20
2023-03-30T05:32:43.183Z,93.10
2023-03-30T05:35:34.845Z,93.10
2023-03-30T05:38:24.022Z,93.00
2023-03-30T05:41:09.750Z,93.00
2023-03-30T05:43:57.728Z,92.50
2023-03-30T05:46:38.930Z,92.80
2023-03-30T05:49:38.298Z,92.90
2023-03-30T05:52:13.461Z,92.40
2023-03-30T05:55:07.270Z,92.60
2023-03-30T05:58:04.096Z,92.40
2023-03-30T06:01:05.940Z,92.70
2023-03-30T06:03:39.412Z,92.90
2023-03-30T06:06:09.428Z,92.70
2023-03-30T06:08:37.527Z,92.60
2023-03-30T06:11:06.925Z,92.30
2023-03-30T06:13:44.737Z,92.30
2023-03-30T06:16:12.125Z,92.20
2023-03-30T06:18:39.588Z,91.80
2023-03-30T06:21:11.857Z,91.20
2023-03-30T06:23:58.646Z,91.40
2023-03-30T06:26:28.877Z,90.70
2023-03-30T06:28:56.324Z,90.60
2023-03-30T06:31:23.576Z,90.80
2023-03-30T06:33:58.714Z,90.70
2023-03-30T06:36:45.127Z,90.60
2023-03-30T06:39:14.900Z,90.20
2023-03-30T06:41:43.296Z,89.10
2023-03-30T06:44:30.325Z,87.60
2023-03-30T06:47:01.960Z,88.50
2023-03-30T06:49:31.027Z,88.30
2023-03-30T06:52:17.555Z,87.40
2023-03-30T06:54:45.333Z,87.60
2023-03-30T06:57:12.602Z,87.20
2023-03-30T06:59:39.898Z,85.20
2023-03-30T07:02:22.103Z,86.60
2023-03-30T07:05:09.567Z,86.00
2023-03-30T07:07:55.818Z,85.60
2023-03-30T07:10:23.705Z,85.40
2023-03-30T07:12:51.578Z,86.30
2023-03-30T07:15:20.652Z,86.60
2023-03-30T07:17:48.735Z,86.40
2023-03-30T07:20:16.091Z,85.60
2023-03-30T07:23:03.806Z,85.10
2023-03-30T07:25:31.693Z,86.00
2023-03-30T07:28:06.369Z,86.10
2023-03-30T07:30:35.773Z,86.30
2023-03-30T07:33:06.385Z,86.00
2023-03-30T07:35:33.931Z,85.60
2023-03-30T07:38:05.280Z,85.60
2023-03-30T07:40:36.012Z,85.70
2023-03-30T07:43:04.958Z,85.70
2023-03-30T07:45:32.221Z,84.70
2023-03-30T07:47:59.640Z,84.50
2023-03-30T07:50:26.920Z,83.30
2023-03-30T07:52:57.064Z,83.00
2023-03-30T07:55:25.392Z,83.10
2023-03-30T07:57:59.348Z,82.60
2023-03-30T08:00:26.658Z,82.50
2023-03-30T08:03:15.039Z,83.30
2023-03-30T08:05:42.636Z,83.30
2023-03-30T08:08:20.534Z,83.60
2023-03-30T08:10:48.175Z,83.20
2023-03-30T08:13:15.586Z,83.90
2023-03-30T08:15:43.625Z,83.70
2023-03-30T08:18:13.153Z,83.50
2023-03-30T08:20:42.669Z,82.90
2023-03-30T08:23:11.538Z,83.10
2023-03-30T08:25:38.828Z,82.40
2023-03-30T08:28:06.154Z,82.70
2023-03-30T08:30:33.665Z,83.00
2023-03-30T08:33:01.184Z,83.80
2023-03-30T08:35:29.072Z,82.60
2023-03-30T08:37:56.760Z,82.20
2023-03-30T08:40:24.022Z,83.00
2023-03-30T08:43:28.843Z,83.00
2023-03-30T08:46:00.072Z,80.90
2023-03-30T08:48:31.902Z,81.80
2023-03-30T08:51:02.948Z,83.30
2023-03-30T08:53:33.551Z,83.00
2023-03-30T08:56:20.901Z,83.10
2023-03-30T08:59:05.889Z,83.00
2023-03-30T09:01:48.921Z,83.30
2023-03-30T09:04:42.431Z,83.60
2023-03-30T09:07:18.191Z,83.60
2023-03-30T09:09:49.234Z,83.80
2023-03-30T09:12:51.418Z,84.70
2023-03-30T09:15:57.508Z,83.40
2023-03-30T09:18:32.175Z,83.40
2023-03-30T09:21:02.295Z,83.90
2023-03-30T09:23:32.018Z,84.30
2023-03-30T09:29:01.249Z,83.90
2023-03-30T09:31:33.801Z,83.00
2023-03-30T09:34:08.810Z,82.70
2023-03-30T09:36:44.708Z,83.30
2023-03-30T09:39:19.789Z,82.70
2023-03-30T09:42:09.040Z,83.20
2023-03-30T09:44:40.920Z,82.60
2023-03-30T09:47:23.264Z,82.20
2023-03-30T09:49:56.885Z,83.00
2023-03-30T09:52:27.352Z,81.70
2023-03-30T09:54:54.667Z,81.50
2023-03-30T09:57:40.054Z,83.00
2023-03-30T10:00:29.425Z,83.60
2023-03-30T10:03:02.855Z,83.40
2023-03-30T10:05:32.569Z,83.00
2023-03-30T10:08:03.411Z,83.30
2023-03-30T10:10:36.525Z,83.90
2023-03-30T10:13:08.583Z,82.70
2023-03-30T10:15:39.754Z,82.70
2023-03-30T10:18:30.638Z,83.10
2023-03-30T10:21:08.203Z,80.90
2023-03-30T10:23:41.988Z,80.00
2023-03-30T10:26:20.908Z,79.90
2023-03-30T10:29:11.188Z,81.70
2023-03-30T10:31:42.813Z,81.90
2023-03-30T10:34:28.406Z,80.30
2023-03-30T10:36:55.707Z,79.20
2023-03-30T10:39:32.565Z,80.20
2023-03-30T10:42:05.747Z,80.50
2023-03-30T10:44:36.557Z,80.20
2023-03-30T10:47:41.338Z,81.20
2023-03-30T10:50:16.534Z,81.10
2023-03-30T10:53:06.912Z,81.00
2023-03-30T10:55:49.359Z,81.20
2023-03-30T10:58:26.346Z,83.40
2023-03-30T11:01:28.311Z,82.50
2023-03-30T11:04:16.169Z,82.60
2023-03-30T11:06:53.311Z,82.80
2023-03-30T11:09:30.825Z,82.40
2023-03-30T11:12:16.933Z,82.30
2023-03-30T11:14:52.590Z,82.50
2023-03-30T11:17:41.116Z,83.10
2023-03-30T11:20:31.290Z,85.30
2023-03-30T11:23:10.657Z,83.80
2023-03-30T11:25:49.576Z,83.20
2023-03-30T11:28:48.811Z,84.40
2023-03-30T11:31:34.841Z,83.30
2023-03-30T11:34:24.669Z,84.50
2023-03-30T11:37:01.105Z,83.20
2023-03-30T11:39:34.637Z,83.50
2023-03-30T11:42:16.239Z,83.20
2023-03-30T11:44:43.776Z,83.90
2023-03-30T11:47:38.955Z,85.60
2023-03-30T11:50:24.535Z,85.30
2023-03-30T11:52:51.585Z,84.80
2023-03-30T11:55:42.001Z,86.00
2023-03-30T11:58:16.245Z,85.20
2023-03-30T12:01:01.489Z,85.80
2023-03-30T12:03:42.872Z,84.70
2023-03-30T12:06:29.014Z,83.70
2023-03-30T12:08:59.095Z,81.90
2023-03-30T12:11:39.837Z,81.40
2023-03-30T12:14:26.223Z,81.30
2023-03-30T12:16:57.887Z,82.10
2023-03-30T12:19:48.875Z,81.30
2023-03-30T12:22:52.593Z,81.50
2023-03-30T12:26:13.495Z,79.70
2023-03-30T12:29:11.223Z,81.20
2023-03-30T12:31:54.857Z,81.00
2023-03-30T12:34:27.222Z,80.20
2023-03-30T12:37:04.813Z,81.20
2023-03-30T12:39:50.213Z,81.00
2023-03-30T12:42:27.361Z,80.10
2023-03-30T12:45:13.316Z,79.50
2023-03-30T12:48:04.533Z,79.60
2023-03-30T12:50:54.383Z,79.40
2023-03-30T12:53:39.768Z,80.00
2023-03-30T12:56:26.575Z,81.40
2023-03-30T12:59:18.650Z,81.50
2023-03-30T13:01:54.601Z,81.30
2023-03-30T13:04:24.651Z,81.40
2023-03-30T13:07:02.798Z,80.40
2023-03-30T13:09:55.825Z,81.40
2023-03-30T13:12:42.429Z,80.60
2023-03-30T13:15:34.790Z,81.00
2023-03-30T13:18:29.745Z,80.60
2023-03-30T13:20:56.766Z,82.00
2023-03-30T13:23:25.933Z,80.80
2023-03-30T13:26:04.713Z,81.60
2023-03-30T13:28:55.015Z,82.60
2023-03-30T13:31:30.103Z,82.00
2023-03-30T13:34:06.860Z,81.30
2023-03-30T13:36:40.633Z,81.00
2023-03-30T13:39:29.689Z,81.60
2023-03-30T13:41:59.805Z,82.10
2023-03-30T13:44:42.004Z,83.00
2023-03-30T13:47:40.239Z,82.50
2023-03-30T13:50:24.293Z,83.10
2023-03-30T13:52:55.665Z,83.70
2023-03-30T13:55:33.678Z,83.00
2023-03-30T13:58:17.082Z,82.40
2023-03-30T14:00:49.935Z,83.40
2023-03-30T14:03:39.420Z,83.10
2023-03-30T14:06:23.578Z,83.80
2023-03-30T14:09:05.561Z,84.20
2023-03-30T14:11:41.667Z,83.70
2023-03-30T14:14:15.829Z,84.10
2023-03-30T14:16:43.181Z,84.30
2023-03-30T14:19:19.208Z,83.60
2023-03-30T14:21:47.899Z,83.70
2023-03-30T14:24:32.020Z,84.40
2023-03-30T14:27:14.225Z,84.40
2023-03-30T14:29:50.668Z,85.00
2023-03-30T14:32:23.299Z,84.80
2023-03-30T14:34:52.751Z,85.20
2023-03-30T14:37:22.013Z,85.00
2023-03-30T14:39:53.443Z,86.40
2023-03-30T14:42:21.895Z,86.90
2023-03-30T14:44:51.822Z,86.30
2023-03-30T14:47:22.911Z,86.20
2023-03-30T14:49:54.028Z,86.00
2023-03-30T14:52:33.454Z,86.00
2023-03-30T14:55:06.011Z,86.30
2023-03-30T14:57:39.725Z,87.00
2023-03-30T15:00:21.204Z,87.10
2023-03-30T15:03:02.472Z,87.40
2023-03-30T15:05:47.693Z,87.30
2023-03-30T15:08:21.761Z,87.10
2023-03-30T15:11:20.594Z,87.70
2023-03-30T15:13:52.238Z,87.60
2023-03-30T15:16:27.077Z,88.60
2023-03-30T15:19:02.593Z,88.30
2023-03-30T15:21:33.301Z,89.00
2023-03-30T15:24:01.340Z,89.10
2023-03-30T15:26:29.179Z,89.30
2023-03-30T15:28:58.431Z,89.70
2023-03-30T15:31:28.259Z,90.20
2023-03-30T15:33:59.751Z,90.30
2023-03-30T15:36:38.674Z,90.20
2023-03-30T15:39:33.669Z,90.50
2023-03-30T15:42:06.506Z,90.80
2023-03-30T15:44:39.064Z,90.90
2023-03-30T15:47:19.838Z,90.70
2023-03-30T15:49:51.220Z,91.00
2023-03-30T15:52:32.144Z,90.60
2023-03-30T15:55:14.745Z,90.50
2023-03-30T15:57:44.316Z,90.50
2023-03-30T16:00:19.222Z,90.70
2023-03-30T16:03:00.231Z,90.80
2023-03-30T16:05:30.522Z,90.70
2023-03-30T16:07:58.195Z,91.00
2023-03-30T16:10:28.777Z,91.00
2023-03-30T16:12:58.317Z,91.20
2023-03-30T16:15:28.484Z,91.00
2023-03-30T16:17:55.892Z,91.20
2023-03-30T16:20:25.681Z,92.10
2023-03-30T16:22:52.892Z,92.90
2023-03-30T16:25:26.033Z,92.80
2023-03-30T16:28:01.536Z,92.80
2023-03-30T16:30:35.418Z,92.90
2023-03-30T16:33:04.111Z,94.00
2023-03-30T16:35:31.932Z,95.10
2023-03-30T16:37:59.262Z,98.60
2023-03-30T16:40:26.871Z,99.90
2023-03-30T16:42:54.277Z,99.90
2023-03-30T16:45:22.059Z,99.90
2023-03-30T16:47:50.095Z,99.90
2023-03-30T16:50:23.330Z,99.90
2023-03-30T16:52:51.654Z,99.90
2023-03-30T16:55:19.410Z,99.90
2023-03-30T16:57:46.861Z,99.90
2023-03-30T17:00:27.135Z,99.90
2023-03-30T17:02:55.091Z,99.90
2023-03-30T17:05:22.529Z,99.90
2023-03-30T17:07:55.100Z,99.90
2023-03-30T17:10:29.192Z,99.90
2023-03-30T17:12:56.406Z,99.90
2023-03-30T17:15:27.471Z,99.90
2023-03-30T17:17:56.838Z,99.90
2023-03-30T17:20:36.724Z,99.90
2023-03-30T17:23:04.851Z,99.90
2023-03-30T17:25:36.725Z,99.90
2023-03-30T17:28:05.710Z,99.90
2023-03-30T17:30:36.713Z,99.90
2023-03-30T17:33:04.900Z,99.90
2023-03-30T17:35:32.567Z,99.90
2023-03-30T17:38:00.818Z,99.90
2023-03-30T17:40:31.624Z,99.90
2023-03-30T17:42:59.159Z,99.90
2023-03-30T17:45:30.312Z,99.90
2023-03-30T17:47:58.843Z,99.90
2023-03-30T17:50:35.889Z,99.90
2023-03-30T17:53:03.934Z,99.90
2023-03-30T17:55:33.898Z,99.90
2023-03-30T17:58:02.785Z,99.90
2023-03-30T18:00:34.648Z,99.90
2023-03-30T18:03:02.723Z,99.90
2023-03-30T18:05:33.487Z,99.90
2023-03-30T18:08:01.496Z,99.90
2023-03-30T18:10:36.744Z,99.90
2023-03-30T18:13:05.667Z,99.90
2023-03-30T18:15:34.827Z,99.90
2023-03-30T18:18:02.842Z,99.90
2023-03-30T18:20:38.929Z,99.90
2023-03-30T18:23:07.230Z,99.90
2023-03-30T18:25:35.145Z,99.90
2023-03-30T18:28:03.715Z,99.90
2023-03-30T18:30:42.624Z,99.90
2023-03-30T18:33:11.157Z,99.90
2023-03-30T18:35:39.871Z,99.90
2023-03-30T18:38:08.177Z,99.90
2023-03-30T18:40:42.432Z,99.90
2023-03-30T18:43:12.186Z,99.90
2023-03-30T18:45:48.870Z,99.90
2023-03-30T18:48:19.819Z,99.90
2023-03-30T18:50:50.055Z,99.90
2023-03-30T18:53:27.504Z,99.90
2023-03-30T18:56:01.962Z,99.90
2023-03-30T18:58:34.005Z,99.90
2023-03-30T19:01:04.063Z,99.90
2023-03-30T19:03:33.321Z,99.90
2023-03-30T19:06:01.788Z,99.90
2023-03-30T19:08:29.949Z,99.90
2023-03-30T19:10:59.111Z,99.90
2023-03-30T19:13:31.560Z,99.90
2023-03-30T19:16:04.849Z,99.90
2023-03-30T19:18:33.421Z,99.90
2023-03-30T19:21:01.754Z,99.90
2023-03-30T19:23:30.312Z,99.90
2023-03-30T19:25:59.535Z,99.90
2023-03-30T19:28:27.534Z,99.90
2023-03-30T19:30:55.801Z,99.90
2023-03-30T19:33:23.865Z,99.90
2023-03-30T19:35:52.830Z,99.90
2023-03-30T19:38:20.473Z,99.90
2023-03-30T19:40:48.588Z,99.90
2023-03-30T19:43:17.404Z,99.90
2023-03-30T19:45:51.119Z,99.90
2023-03-30T19:48:20.248Z,99.90
2023-03-30T19:50:51.571Z,99.90
2023-03-30T19:53:19.430Z,99.90
2023-03-30T19:55:49.107Z,99.90
2023-03-30T19:58:17.189Z,99.90
2023-03-30T20:00:50.147Z,99.90
2023-03-30T20:03:19.749Z,99.90
2023-03-30T20:05:50.608Z,99.90
2023-03-30T20:08:24.427Z,99.90
2023-03-30T20:10:53.108Z,99.90
2023-03-30T20:13:24.691Z,99.90
2023-03-30T20:15:56.315Z,99.90
2023-03-30T20:18:23.639Z,99.90
2023-03-30T20:20:51.349Z,99.90
2023-03-30T20:23:18.604Z,99.90
2023-03-30T20:25:50.668Z,99.90
2023-03-30T20:28:18.163Z,99.90
2023-03-30T20:30:45.429Z,99.90
2023-03-30T20:33:12.730Z,99.90
2023-03-30T20:35:40.020Z,99.90
2023-03-30T20:38:08.675Z,99.90
2023-03-30T20:40:36.355Z,99.90
2023-03-30T20:43:03.719Z,99.90
2023-03-30T20:45:31.533Z,99.90
2023-03-30T20:47:59.834Z,99.90
2023-03-30T20:50:27.380Z,99.90
2023-03-30T20:52:54.691Z,99.90
2023-03-30T20:55:21.847Z,99.90
2023-03-30T20:57:48.856Z,99.90
2023-03-30T21:00:16.347Z,99.90
2023-03-30T21:02:43.452Z,99.90
2023-03-30T21:05:10.601Z,99.90
2023-03-30T21:07:38.626Z,99.90
2023-03-30T21:10:06.636Z,99.90
2023-03-30T21:12:33.795Z,99.90
2023-03-30T21:15:00.860Z,99.90
2023-03-30T21:17:27.961Z,99.90
2023-03-30T21:19:55.023Z,99.90
2023-03-30T21:22:22.146Z,99.90
2023-03-30T21:24:49.171Z,99.90
2023-03-30T21:27:16.385Z,99.90
2023-03-30T21:29:43.466Z,99.90
2023-03-30T21:32:10.708Z,99.90
2023-03-30T21:34:37.834Z,99.90
2023-03-30T21:37:04.964Z,99.90
2023-03-30T21:39:32.104Z,99.90
2023-03-30T21:41:59.328Z,99.90
2023-03-30T21:44:26.536Z,99.90
2023-03-30T21:46:53.698Z,99.90
2023-03-30T21:49:21.019Z,99.90
2023-03-30T21:51:48.801Z,99.90
2023-03-30T21:54:16.229Z,99.90
2023-03-30T21:56:43.536Z,99.90
2023-03-30T21:59:10.833Z,99.90
2023-03-30T22:01:41.194Z,99.90
2023-03-30T22:04:08.494Z,99.90
2023-03-30T22:06:35.599Z,99.90
2023-03-30T22:09:03.015Z,99.90
2023-03-30T22:11:30.295Z,99.90
2023-03-30T22:13:57.454Z,99.90
2023-03-30T22:16:28.476Z,99.90
2023-03-30T22:18:55.841Z,99.90
2023-03-30T22:21:25.084Z,99.90
2023-03-30T22:23:54.952Z,99.90
2023-03-30T22:26:22.615Z,99.90
2023-03-30T22:28:49.714Z,99.90
2023-03-30T22:31:17.049Z,99.90
2023-03-30T22:33:44.966Z,99.90
2023-03-30T22:36:20.669Z,99.90
2023-03-30T22:38:49.555Z,99.90
2023-03-30T22:41:18.826Z,99.90
2023-03-30T22:43:46.919Z,99.90
2023-03-30T22:46:14.058Z,99.90
2023-03-30T22:48:41.647Z,99.90
2023-03-30T22:51:09.220Z,99.90
2023-03-30T22:53:36.572Z,99.90
2023-03-30T22:56:04.453Z,99.90
2023-03-30T22:58:31.694Z,99.90
2023-03-30T23:01:02.999Z,99.90
2023-03-30T23:03:30.344Z,99.90
2023-03-30T23:06:01.396Z,99.90
2023-03-30T23:08:31.136Z,99.90
2023-03-30T23:11:05.162Z,99.90
2023-03-30T23:13:38.009Z,99.90
2023-03-30T23:16:06.779Z,99.90
2023-03-30T23:18:34.978Z,99.90
2023-03-30T23:21:07.039Z,99.90
2023-03-30T23:23:38.453Z,99.90
2023-03-30T23:26:10.434Z,99.90
2023-03-30T23:28:39.585Z,99.90
2023-03-30T23:31:12.538Z,99.90
2023-03-30T23:33:40.651Z,99.90
2023-03-30T23:36:09.261Z,99.90
2023-03-30T23:38:37.613Z,99.90
2023-03-30T23:41:06.111Z,99.90
2023-03-30T23:43:33.358Z,99.90
2023-03-30T23:46:00.500Z,99.90
2023-03-30T23:48:27.668Z,99.90
2023-03-30T23:50:56.805Z,99.90
2023-03-30T23:53:25.152Z,99.90
2023-03-30T23:55:52.913Z,99.90
2023-03-30T23:58:20.069Z,99.90
